createdAt,value
2019-02-05T00:01:18.004Z,-1.80
2019-02-05T00:03:47.743Z,-1.80
2019-02-05T00:06:17.552Z,-1.80
2019-02-05T00:08:47.268Z,-1.80
2019-02-05T00:11:17.013Z,-1.80
2019-02-05T00:13:46.780Z,-1.80
2019-02-05T00:16:16.533Z,-1.60
2019-02-05T00:18:46.323Z,-1.50
2019-02-05T00:21:16.273Z,-1.50
2019-02-05T00:23:46.030Z,-1.60
2019-02-05T00:26:15.703Z,-1.80
2019-02-05T00:28:45.416Z,-1.80
2019-02-05T00:31:15.163Z,-1.80
2019-02-05T00:33:44.939Z,-1.80
2019-02-05T00:36:14.903Z,-1.80
2019-02-05T00:38:44.703Z,-1.80
2019-02-05T00:41:14.460Z,-1.70
2019-02-05T00:43:45.549Z,-1.50
2019-02-05T00:46:15.331Z,-1.60
2019-02-05T00:48:45.092Z,-1.60
2019-02-05T00:51:14.837Z,-1.70
2019-02-05T00:53:44.611Z,-1.80
2019-02-05T00:56:17.648Z,-1.80
2019-02-05T00:58:45.784Z,-1.80
2019-02-05T01:01:15.605Z,-1.80
2019-02-05T01:03:45.743Z,-1.80
2019-02-05T01:06:15.508Z,-1.70
2019-02-05T01:08:45.316Z,-1.80
2019-02-05T01:11:15.063Z,-1.90
2019-02-05T01:13:44.838Z,-2.00
2019-02-05T01:16:14.585Z,-2.00
2019-02-05T01:18:44.385Z,-2.20
2019-02-05T01:21:15.244Z,-2.30
2019-02-05T01:23:45.027Z,-2.20
2019-02-05T01:26:14.801Z,-2.30
2019-02-05T01:28:44.549Z,-2.30
2019-02-05T01:31:14.729Z,-2.10
2019-02-05T01:33:44.499Z,-2.20
2019-02-05T01:36:14.243Z,-2.20
2019-02-05T01:38:44.027Z,-2.30
2019-02-05T01:41:13.788Z,-2.30
2019-02-05T01:43:43.534Z,-2.30
2019-02-05T01:46:13.498Z,-2.20
2019-02-05T01:48:43.181Z,-2.20
2019-02-05T01:51:12.959Z,-2.10
2019-02-05T01:53:42.719Z,-2.10
2019-02-05T01:56:12.492Z,-2.10
2019-02-05T01:58:42.302Z,-2.30
2019-02-05T02:01:12.036Z,-2.20
2019-02-05T02:03:41.792Z,-2.20
2019-02-05T02:06:11.457Z,-2.20
2019-02-05T02:08:41.154Z,-2.20
2019-02-05T02:11:10.824Z,-2.30
2019-02-05T02:13:41.347Z,-2.30
2019-02-05T02:16:11.118Z,-2.30
2019-02-05T02:18:40.874Z,-2.20
2019-02-05T02:21:10.632Z,-2.20
2019-02-05T02:23:41.988Z,-2.20
2019-02-05T02:26:11.771Z,-2.20
2019-02-05T02:28:41.840Z,-2.20
2019-02-05T02:31:11.579Z,-2.20
2019-02-05T02:33:41.348Z,-2.00
2019-02-05T02:36:11.127Z,-1.90
2019-02-05T02:38:40.896Z,-1.90
2019-02-05T02:41:10.677Z,-1.90
2019-02-05T02:43:40.736Z,-1.90
2019-02-05T02:46:10.527Z,-1.90
2019-02-05T02:48:40.271Z,-1.90
2019-02-05T02:51:10.048Z,-1.90
2019-02-05T02:53:39.969Z,-1.80
2019-02-05T02:56:09.775Z,-1.80
2019-02-05T02:58:39.561Z,-1.80
2019-02-05T03:01:09.323Z,-1.90
2019-02-05T03:03:39.091Z,-1.90
2019-02-05T03:06:08.835Z,-1.80
2019-02-05T03:08:38.630Z,-1.70
2019-02-05T03:11:08.402Z,-1.80
2019-02-05T03:13:38.390Z,-1.80
2019-02-05T03:16:08.237Z,-1.70
2019-02-05T03:18:37.957Z,-1.70
2019-02-05T03:21:07.727Z,-1.60
2019-02-05T03:23:37.478Z,-1.60
2019-02-05T03:26:07.244Z,-1.60
2019-02-05T03:28:36.998Z,-1.60
2019-02-05T03:31:06.774Z,-1.60
2019-02-05T03:33:36.522Z,-1.60
2019-02-05T03:36:06.296Z,-1.70
2019-02-05T03:38:36.064Z,-1.70
2019-02-05T03:41:05.809Z,-1.70
2019-02-05T03:43:36.319Z,-1.80
2019-02-05T03:46:06.464Z,-1.80
2019-02-05T03:48:36.227Z,-1.90
2019-02-05T03:51:18.242Z,-2.00
2019-02-05T03:54:03.381Z,-2.00
2019-02-05T03:56:48.431Z,-2.00
2019-02-05T03:59:57.884Z,-2.00
2019-02-05T04:02:49.167Z,-2.00
2019-02-05T04:05:22.224Z,-2.00
2019-02-05T04:08:04.359Z,-2.00
2019-02-05T04:10:43.585Z,-1.90
2019-02-05T04:13:35.976Z,-1.90
2019-02-05T04:16:17.888Z,-1.90
2019-02-05T04:19:05.844Z,-1.80
2019-02-05T04:21:47.307Z,-1.80
2019-02-05T04:24:35.370Z,-1.70
2019-02-05T04:27:17.291Z,-1.70
2019-02-05T04:30:24.719Z,-1.60
2019-02-05T04:33:09.897Z,-1.60
2019-02-05T04:35:46.027Z,-1.60
2019-02-05T04:38:30.612Z,-1.50
2019-02-05T04:41:03.661Z,-1.40
2019-02-05T04:43:51.662Z,-1.50
2019-02-05T04:46:55.162Z,-1.60
2019-02-05T04:49:47.315Z,-1.60
2019-02-05T04:52:42.737Z,-1.50
2019-02-05T04:55:18.747Z,-1.50
2019-02-05T04:58:01.556Z,-1.50
2019-02-05T05:00:37.464Z,-1.40
2019-02-05T05:03:33.755Z,-1.40
2019-02-05T05:06:20.300Z,-1.50
2019-02-05T05:08:53.338Z,-1.40
2019-02-05T05:11:23.074Z,-1.40
2019-02-05T05:13:52.844Z,-1.50
2019-02-05T05:16:22.612Z,-1.50
2019-02-05T05:18:52.464Z,-1.50
2019-02-05T05:21:22.288Z,-1.50
2019-02-05T05:23:52.212Z,-1.40
2019-02-05T05:26:21.981Z,-1.40
2019-02-05T05:28:51.778Z,-1.40
2019-02-05T05:31:21.542Z,-1.50
2019-02-05T05:33:51.308Z,-1.40
2019-02-05T05:36:21.067Z,-1.30
2019-02-05T05:38:50.836Z,-1.30
2019-02-05T05:41:20.809Z,-1.30
2019-02-05T05:43:50.575Z,-1.30
2019-02-05T05:46:20.313Z,-1.30
2019-02-05T05:48:50.089Z,-1.30
2019-02-05T05:51:19.841Z,-1.40
2019-02-05T05:53:49.618Z,-1.40
2019-02-05T05:56:19.660Z,-1.40
2019-02-05T05:58:49.424Z,-1.50
2019-02-05T06:01:19.159Z,-1.50
2019-02-05T06:03:48.936Z,-1.50
2019-02-05T06:06:18.676Z,-1.40
2019-02-05T06:08:48.460Z,-1.40
2019-02-05T06:11:18.747Z,-1.40
2019-02-05T06:13:49.584Z,-1.50
2019-02-05T06:16:19.567Z,-1.40
2019-02-05T06:18:49.280Z,-1.50
2019-02-05T06:21:19.037Z,-1.60
2019-02-05T06:23:48.783Z,-1.60
2019-02-05T06:26:20.274Z,-1.60
2019-02-05T06:28:50.223Z,-1.60
2019-02-05T06:31:19.998Z,-1.50
2019-02-05T06:33:49.677Z,-1.50
2019-02-05T06:36:19.448Z,-1.50
2019-02-05T06:38:49.194Z,-1.50
2019-02-05T06:41:20.373Z,-1.50
2019-02-05T06:43:50.141Z,-1.50
2019-02-05T06:46:20.696Z,-1.50
2019-02-05T06:48:50.572Z,-1.40
2019-02-05T06:51:20.353Z,-1.40
2019-02-05T06:53:50.129Z,-1.50
2019-02-05T06:56:20.184Z,-1.50
2019-02-05T06:58:49.960Z,-1.50
2019-02-05T07:01:19.725Z,-1.60
2019-02-05T07:03:49.509Z,-1.50
2019-02-05T07:06:19.283Z,-1.50
2019-02-05T07:08:49.067Z,-1.40
2019-02-05T07:11:19.168Z,-1.30
2019-02-05T07:13:49.058Z,-1.30
2019-02-05T07:16:18.967Z,-1.30
2019-02-05T07:18:48.726Z,-1.30
2019-02-05T07:21:18.493Z,-1.30
2019-02-05T07:23:48.370Z,-1.20
2019-02-05T07:26:18.120Z,-1.20
2019-02-05T07:28:57.959Z,-1.10
2019-02-05T07:31:19.284Z,-1.00
2019-02-05T07:33:49.073Z,-1.00
2019-02-05T07:36:18.851Z,-1.00
2019-02-05T07:38:48.625Z,-1.00
2019-02-05T07:41:18.404Z,-0.90
2019-02-05T07:43:48.455Z,-0.90
2019-02-05T07:46:18.305Z,-0.80
2019-02-05T07:48:48.070Z,-0.80
2019-02-05T07:51:17.860Z,-0.80
2019-02-05T07:53:47.603Z,-0.70
2019-02-05T07:56:17.373Z,-0.70
2019-02-05T07:58:47.133Z,-0.70
2019-02-05T08:01:17.686Z,-0.60
2019-02-05T08:03:47.555Z,-0.50
2019-02-05T08:06:17.339Z,-0.40
2019-02-05T08:08:47.104Z,-0.30
2019-02-05T08:11:16.948Z,-0.40
2019-02-05T08:13:47.616Z,-0.30
2019-02-05T08:16:17.767Z,-0.30
2019-02-05T08:18:47.832Z,-0.30
2019-02-05T08:21:17.600Z,-0.20
2019-02-05T08:23:47.372Z,-0.20
2019-02-05T08:26:17.126Z,-0.20
2019-02-05T08:28:46.890Z,-0.10
2019-02-05T08:31:16.667Z,-0.10
2019-02-05T08:33:47.793Z,0.10
2019-02-05T08:36:17.557Z,0.10
2019-02-05T08:38:47.293Z,0.10
2019-02-05T08:41:17.073Z,0.10
2019-02-05T08:43:46.871Z,0.20
2019-02-05T08:46:16.619Z,0.20
2019-02-05T08:48:46.373Z,0.30
2019-02-05T08:51:16.177Z,0.40
2019-02-05T08:53:45.902Z,0.40
2019-02-05T08:56:15.660Z,0.40
2019-02-05T08:58:45.426Z,0.40
2019-02-05T09:01:15.221Z,0.40
2019-02-05T09:03:44.979Z,0.40
2019-02-05T09:06:14.936Z,0.30
2019-02-05T09:08:44.722Z,0.30
2019-02-05T09:11:14.578Z,0.40
2019-02-05T09:13:45.003Z,0.40
2019-02-05T09:16:16.629Z,0.50
2019-02-05T09:18:46.402Z,0.60
2019-02-05T09:21:16.370Z,0.70
2019-02-05T09:23:46.129Z,0.80
2019-02-05T09:26:15.956Z,0.90
2019-02-05T09:28:45.760Z,1.10
2019-02-05T09:31:15.648Z,1.20
2019-02-05T09:33:45.467Z,1.30
2019-02-05T09:36:15.205Z,1.30
2019-02-05T09:38:44.968Z,1.40
2019-02-05T09:41:14.732Z,1.40
2019-02-05T09:43:45.484Z,1.40
2019-02-05T09:46:15.244Z,1.50
2019-02-05T09:48:44.991Z,1.40
2019-02-05T09:51:14.739Z,1.50
2019-02-05T09:53:44.818Z,1.40
2019-02-05T09:56:14.568Z,1.30
2019-02-05T09:58:44.324Z,1.30
2019-02-05T10:01:14.117Z,1.30
2019-02-05T10:03:43.868Z,1.30
2019-02-05T10:06:13.640Z,1.50
2019-02-05T10:08:43.782Z,1.70
2019-02-05T10:11:13.548Z,1.90
2019-02-05T10:13:43.324Z,2.00
2019-02-05T10:16:13.125Z,2.10
2019-02-05T10:18:45.995Z,2.10
2019-02-05T10:21:15.423Z,2.00
2019-02-05T10:23:45.167Z,2.00
2019-02-05T10:26:14.944Z,2.00
2019-02-05T10:28:44.710Z,1.90
2019-02-05T10:31:14.453Z,1.70
2019-02-05T10:33:54.646Z,1.60
2019-02-05T10:36:15.590Z,1.60
2019-02-05T10:38:45.369Z,1.80
2019-02-05T10:41:15.130Z,1.90
2019-02-05T10:43:44.900Z,1.80
2019-02-05T10:46:14.644Z,1.90
2019-02-05T10:48:44.412Z,2.10
2019-02-05T10:51:14.204Z,2.60
2019-02-05T10:53:43.948Z,3.00
2019-02-05T10:56:13.931Z,3.30
2019-02-05T10:58:43.769Z,3.50
2019-02-05T11:01:13.664Z,3.70
2019-02-05T11:03:43.413Z,4.00
2019-02-05T11:06:13.238Z,4.20
2019-02-05T11:08:43.011Z,4.40
2019-02-05T11:11:13.057Z,4.50
2019-02-05T11:13:42.825Z,4.50
2019-02-05T11:16:12.595Z,4.50
2019-02-05T11:18:42.331Z,4.70
2019-02-05T11:21:12.101Z,4.30
2019-02-05T11:23:41.884Z,4.20
2019-02-05T11:26:11.659Z,4.20
2019-02-05T11:28:41.473Z,4.00
2019-02-05T11:31:11.219Z,3.90
2019-02-05T11:33:40.991Z,4.20
2019-02-05T11:36:10.909Z,4.30
2019-02-05T11:38:40.680Z,4.30
2019-02-05T11:41:10.457Z,4.20
2019-02-05T11:43:41.824Z,4.30
2019-02-05T11:46:11.669Z,4.30
2019-02-05T11:48:41.430Z,4.20
2019-02-05T11:51:11.200Z,4.20
2019-02-05T11:53:41.111Z,4.20
2019-02-05T11:56:10.893Z,3.90
2019-02-05T11:58:41.038Z,3.70
2019-02-05T12:01:12.266Z,3.50
2019-02-05T12:03:41.985Z,3.60
2019-02-05T12:06:11.855Z,3.70
2019-02-05T12:08:41.599Z,3.90
2019-02-05T12:11:11.355Z,4.20
2019-02-05T12:13:41.105Z,3.90
2019-02-05T12:16:10.981Z,3.50
2019-02-05T12:18:40.720Z,3.30
2019-02-05T12:21:10.482Z,3.20
2019-02-05T12:23:40.260Z,3.30
2019-02-05T12:26:10.020Z,3.40
2019-02-05T12:28:39.753Z,3.40
2019-02-05T12:31:09.818Z,3.10
2019-02-05T12:33:39.570Z,2.90
2019-02-05T12:36:09.337Z,2.80
2019-02-05T12:38:39.110Z,3.00
2019-02-05T12:41:08.874Z,3.20
2019-02-05T12:43:38.611Z,3.40
2019-02-05T12:46:08.695Z,3.60
2019-02-05T12:48:38.439Z,3.80
2019-02-05T12:51:08.218Z,3.90
2019-02-05T12:53:38.930Z,3.90
2019-02-05T12:56:08.679Z,3.80
2019-02-05T12:58:38.440Z,3.70
2019-02-05T13:01:08.423Z,3.70
2019-02-05T13:03:38.185Z,4.00
2019-02-05T13:06:07.948Z,4.30
2019-02-05T13:08:37.631Z,4.50
2019-02-05T13:11:07.384Z,4.50
2019-02-05T13:13:37.159Z,4.40
2019-02-05T13:16:07.126Z,4.60
2019-02-05T13:18:36.874Z,4.70
2019-02-05T13:21:19.562Z,4.90
2019-02-05T13:23:49.323Z,4.80
2019-02-05T13:26:19.191Z,4.70
2019-02-05T13:28:48.954Z,4.70
2019-02-05T13:31:18.700Z,4.70
2019-02-05T13:33:48.408Z,4.90
2019-02-05T13:36:18.157Z,5.10
2019-02-05T13:38:47.929Z,5.00
2019-02-05T13:41:17.873Z,5.10
2019-02-05T13:43:47.648Z,5.10
2019-02-05T13:46:17.603Z,5.00
2019-02-05T13:48:47.447Z,5.00
2019-02-05T13:51:17.334Z,4.90
2019-02-05T13:53:47.190Z,4.70
2019-02-05T13:56:17.151Z,4.50
2019-02-05T13:58:52.972Z,4.30
2019-02-05T14:01:22.748Z,4.20
2019-02-05T14:03:52.491Z,4.10
2019-02-05T14:06:22.255Z,3.90
2019-02-05T14:08:52.325Z,3.70
2019-02-05T14:11:22.113Z,3.70
2019-02-05T14:13:51.863Z,3.80
2019-02-05T14:16:21.624Z,3.80
2019-02-05T14:18:55.189Z,3.90
2019-02-05T14:21:22.823Z,4.00
2019-02-05T14:23:52.844Z,3.90
2019-02-05T14:26:22.703Z,3.90
2019-02-05T14:28:52.409Z,3.90
2019-02-05T14:31:31.161Z,3.90
2019-02-05T14:33:53.596Z,3.90
2019-02-05T14:36:23.365Z,3.70
2019-02-05T14:38:53.457Z,3.60
2019-02-05T14:41:23.220Z,3.50
2019-02-05T14:43:52.996Z,3.50
2019-02-05T14:46:22.764Z,3.50
2019-02-05T14:48:52.520Z,3.50
2019-02-05T14:51:22.216Z,3.40
2019-02-05T14:53:51.974Z,3.40
2019-02-05T14:56:21.733Z,3.40
2019-02-05T14:58:51.474Z,3.30
2019-02-05T15:01:21.150Z,3.20
2019-02-05T15:03:50.957Z,3.00
2019-02-05T15:06:22.131Z,2.80
2019-02-05T15:08:51.970Z,2.60
2019-02-05T15:11:21.736Z,2.40
2019-02-05T15:13:51.500Z,2.30
2019-02-05T15:16:21.247Z,2.20
2019-02-05T15:18:50.998Z,2.00
2019-02-05T15:21:20.984Z,2.00
2019-02-05T15:23:50.718Z,2.00
2019-02-05T15:26:20.659Z,1.80
2019-02-05T15:28:50.466Z,1.80
2019-02-05T15:31:20.220Z,1.70
2019-02-05T15:33:51.523Z,1.60
2019-02-05T15:36:23.167Z,1.60
2019-02-05T15:38:52.913Z,1.50
2019-02-05T15:41:22.672Z,1.50
2019-02-05T15:43:52.422Z,1.40
2019-02-05T15:46:22.191Z,1.40
2019-02-05T15:48:52.242Z,1.30
2019-02-05T15:51:23.016Z,1.30
2019-02-05T15:53:52.676Z,1.30
2019-02-05T15:56:22.438Z,1.10
2019-02-05T15:58:52.195Z,1.10
2019-02-05T16:01:21.971Z,1.10
2019-02-05T16:03:51.721Z,1.00
2019-02-05T16:06:21.405Z,1.00
2019-02-05T16:08:51.184Z,0.90
2019-02-05T16:11:20.938Z,0.80
2019-02-05T16:13:50.700Z,0.80
2019-02-05T16:16:20.449Z,0.80
2019-02-05T16:18:53.152Z,0.70
2019-02-05T16:21:21.605Z,0.70
2019-02-05T16:23:51.381Z,0.60
2019-02-05T16:26:21.136Z,0.60
2019-02-05T16:28:51.885Z,0.60
2019-02-05T16:31:21.950Z,0.60
2019-02-05T16:33:51.709Z,0.60
2019-02-05T16:36:21.462Z,0.60
2019-02-05T16:38:51.236Z,0.60
2019-02-05T16:41:20.971Z,0.60
2019-02-05T16:43:50.790Z,0.50
2019-02-05T16:46:20.851Z,0.40
2019-02-05T16:48:50.620Z,0.50
2019-02-05T16:51:20.359Z,0.50
2019-02-05T16:53:50.127Z,0.40
2019-02-05T16:56:19.972Z,0.40
2019-02-05T16:58:49.738Z,0.40
2019-02-05T17:01:19.690Z,0.40
2019-02-05T17:03:49.462Z,0.30
2019-02-05T17:06:19.210Z,0.40
2019-02-05T17:08:48.975Z,0.40
2019-02-05T17:11:18.660Z,0.40
2019-02-05T17:13:48.429Z,0.30
2019-02-05T17:16:18.376Z,0.20
2019-02-05T17:18:48.273Z,0.30
2019-02-05T17:21:18.068Z,0.50
2019-02-05T17:23:47.898Z,0.50
2019-02-05T17:26:18.008Z,0.40
2019-02-05T17:28:47.784Z,0.40
2019-02-05T17:31:17.555Z,0.30
2019-02-05T17:33:47.317Z,0.30
2019-02-05T17:36:17.093Z,0.30
2019-02-05T17:38:46.844Z,0.20
2019-02-05T17:41:16.623Z,0.20
2019-02-05T17:43:46.851Z,0.20
2019-02-05T17:46:16.653Z,0.20
2019-02-05T17:48:46.448Z,0.20
2019-02-05T17:51:16.274Z,0.20
2019-02-05T17:53:46.025Z,0.30
2019-02-05T17:56:17.106Z,0.30
2019-02-05T17:58:47.238Z,0.20
2019-02-05T18:01:17.062Z,0.30
2019-02-05T18:03:46.826Z,0.40
2019-02-05T18:06:16.586Z,0.50
2019-02-05T18:08:46.351Z,0.50
2019-02-05T18:11:16.185Z,0.50
2019-02-05T18:13:46.028Z,0.50
2019-02-05T18:16:15.848Z,0.40
2019-02-05T18:18:45.618Z,0.40
2019-02-05T18:21:15.429Z,0.40
2019-02-05T18:23:45.168Z,0.30
2019-02-05T18:26:14.954Z,0.20
2019-02-05T18:28:44.707Z,0.20
2019-02-05T18:31:14.508Z,0.30
2019-02-05T18:33:44.270Z,0.30
2019-02-05T18:36:14.044Z,0.20
2019-02-05T18:38:43.817Z,0.20
2019-02-05T18:41:13.831Z,0.30
2019-02-05T18:43:43.614Z,0.20
2019-02-05T18:46:13.399Z,0.30
2019-02-05T18:48:43.148Z,0.30
2019-02-05T18:51:12.940Z,0.30
2019-02-05T18:53:42.744Z,0.20
2019-02-05T18:56:12.948Z,0.10
2019-02-05T18:58:42.700Z,0.10
2019-02-05T19:01:12.524Z,0.00
2019-02-05T19:03:42.849Z,-0.10
2019-02-05T19:06:12.640Z,-0.10
2019-02-05T19:08:42.399Z,-0.10
2019-02-05T19:11:12.480Z,-0.10
2019-02-05T19:13:42.239Z,-0.10
2019-02-05T19:16:12.000Z,-0.10
2019-02-05T19:18:41.916Z,-0.10
2019-02-05T19:21:11.701Z,-0.10
2019-02-05T19:23:41.543Z,-0.10
2019-02-05T19:26:12.939Z,0.00
2019-02-05T19:28:42.680Z,0.00
2019-02-05T19:31:14.163Z,-0.10
2019-02-05T19:33:43.908Z,-0.10
2019-02-05T19:36:13.698Z,-0.10
2019-02-05T19:38:43.735Z,0.00
2019-02-05T19:41:13.520Z,-0.10
2019-02-05T19:43:43.297Z,0.00
2019-02-05T19:46:20.469Z,0.00
2019-02-05T19:48:55.376Z,-0.10
2019-02-05T19:51:25.205Z,-0.10
2019-02-05T19:53:56.031Z,0.00
2019-02-05T19:56:25.793Z,0.00
2019-02-05T19:58:55.549Z,0.00
2019-02-05T20:01:25.318Z,-0.10
2019-02-05T20:03:59.167Z,-0.10
2019-02-05T20:06:29.072Z,-0.10
2019-02-05T20:08:59.388Z,-0.30
2019-02-05T20:11:29.391Z,-0.20
2019-02-05T20:13:59.524Z,-0.10
2019-02-05T20:16:29.414Z,-0.20
2019-02-05T20:18:59.300Z,-0.20
2019-02-05T20:21:31.932Z,-0.20
2019-02-05T20:24:01.098Z,-0.20
2019-02-05T20:26:31.131Z,-0.30
2019-02-05T20:29:01.247Z,-0.30
2019-02-05T20:31:31.207Z,-0.30
2019-02-05T20:34:01.247Z,-0.30
2019-02-05T20:36:32.216Z,-0.30
2019-02-05T20:39:03.793Z,-0.30
2019-02-05T20:41:34.824Z,-0.20
2019-02-05T20:44:04.732Z,-0.30
2019-02-05T20:46:34.619Z,-0.40
2019-02-05T20:49:04.566Z,-0.40
2019-02-05T20:51:34.577Z,-0.40
2019-02-05T20:54:04.940Z,-0.40
2019-02-05T20:56:34.743Z,-0.50
2019-02-05T20:59:05.030Z,-0.50
2019-02-05T21:01:34.929Z,-0.40
2019-02-05T21:04:04.929Z,-0.50
2019-02-05T21:06:34.784Z,-0.60
2019-02-05T21:09:07.170Z,-0.70
2019-02-05T21:11:36.917Z,-0.80
2019-02-05T21:14:06.672Z,-1.00
2019-02-05T21:16:36.413Z,-1.00
2019-02-05T21:19:06.181Z,-1.00
2019-02-05T21:21:35.984Z,-1.00
2019-02-05T21:24:05.885Z,-1.00
2019-02-05T21:26:35.619Z,-1.00
2019-02-05T21:29:05.395Z,-1.20
2019-02-05T21:31:35.161Z,-1.20
2019-02-05T21:34:15.179Z,-1.10
2019-02-05T21:36:36.354Z,-1.10
2019-02-05T21:39:08.355Z,-1.20
2019-02-05T21:41:38.265Z,-1.20
2019-02-05T21:44:08.023Z,-1.10
2019-02-05T21:46:37.830Z,-1.20
2019-02-05T21:49:07.621Z,-1.20
2019-02-05T21:51:42.001Z,-1.10
2019-02-05T21:54:09.795Z,-1.10
2019-02-05T21:56:40.655Z,-1.10
2019-02-05T21:59:10.415Z,-1.10
2019-02-05T22:01:40.292Z,-1.20
2019-02-05T22:04:10.329Z,-1.30
2019-02-05T22:06:40.392Z,-1.30
2019-02-05T22:09:10.980Z,-1.40
2019-02-05T22:11:42.053Z,-1.30
2019-02-05T22:14:12.174Z,-1.30
2019-02-05T22:16:41.920Z,-1.30
2019-02-05T22:19:13.076Z,-1.30
2019-02-05T22:21:42.860Z,-1.40
2019-02-05T22:24:12.602Z,-1.40
2019-02-05T22:26:42.388Z,-1.40
2019-02-05T22:29:12.198Z,-1.40
2019-02-05T22:31:42.022Z,-1.40
2019-02-05T22:34:12.030Z,-1.40
2019-02-05T22:36:41.792Z,-1.40
2019-02-05T22:39:11.650Z,-1.30
2019-02-05T22:41:41.419Z,-1.30
2019-02-05T22:44:11.292Z,-1.30
2019-02-05T22:46:41.236Z,-1.30
2019-02-05T22:49:10.999Z,-1.30
2019-02-05T22:51:40.820Z,-1.40
2019-02-05T22:54:10.614Z,-1.40
2019-02-05T22:56:40.456Z,-1.50
2019-02-05T22:59:10.536Z,-1.50
2019-02-05T23:01:43.184Z,-1.50
2019-02-05T23:04:13.808Z,-1.60
2019-02-05T23:06:47.152Z,-1.60
2019-02-05T23:09:23.158Z,-1.60
2019-02-05T23:12:15.012Z,-1.70
2019-02-05T23:14:48.646Z,-1.80
2019-02-05T23:17:18.438Z,-1.80
2019-02-05T23:19:48.192Z,-1.80
2019-02-05T23:22:17.947Z,-2.10
2019-02-05T23:24:47.711Z,-2.20
2019-02-05T23:27:17.448Z,-2.40
2019-02-05T23:29:47.345Z,-2.40
2019-02-05T23:32:17.102Z,-2.40
2019-02-05T23:34:46.859Z,-2.40
2019-02-05T23:37:16.611Z,-2.30
2019-02-05T23:39:46.410Z,-2.30
2019-02-05T23:42:16.277Z,-2.30
2019-02-05T23:44:46.038Z,-2.30
2019-02-05T23:47:15.819Z,-2.30
2019-02-05T23:49:45.610Z,-2.20
2019-02-05T23:52:15.380Z,-2.30
2019-02-05T23:54:45.125Z,-2.20
2019-02-05T23:57:14.899Z,-2.20
2019-02-05T23:59:44.657Z,-2.20
